sensor_id;sensor_type;location;lat;lon;timestamp;temperature;humidity
20957;DHT22;10637;47.970;7.830;2023-09-19T00:02:57;19.30;99.90
20957;DHT22;10637;47.970;7.830;2023-09-19T00:08:02;19.60;99.90
20957;DHT22;10637;47.970;7.830;2023-09-19T00:13:07;19.20;99.90
20957;DHT22;10637;47.970;7.830;2023-09-19T00:18:09;18.80;99.90
20957;DHT22;10637;47.970;7.830;2023-09-19T00:23:11;18.70;99.90
20957;DHT22;10637;47.970;7.830;2023-09-19T00:28:13;18.70;99.90
20957;DHT22;10637;47.970;7.830;2023-09-19T00:33:16;18.60;99.90
20957;DHT22;10637;47.970;7.830;2023-09-19T00:38:19;18.60;99.90
20957;DHT22;10637;47.970;7.830;2023-09-19T00:43:24;18.70;99.90
20957;DHT22;10637;47.970;7.830;2023-09-19T00:48:26;18.60;99.90
20957;DHT22;10637;47.970;7.830;2023-09-19T00:53:31;18.60;99.90
20957;DHT22;10637;47.970;7.830;2023-09-19T00:58:33;18.70;99.90
20957;DHT22;10637;47.970;7.830;2023-09-19T01:10:00;18.70;99.90
20957;DHT22;10637;47.970;7.830;2023-09-19T01:15:10;18.90;99.90
20957;DHT22;10637;47.970;7.830;2023-09-19T01:20:45;18.80;99.90
20957;DHT22;10637;47.970;7.830;2023-09-19T01:26:19;18.70;99.90
20957;DHT22;10637;47.970;7.830;2023-09-19T01:31:29;18.60;99.90
20957;DHT22;10637;47.970;7.830;2023-09-19T01:36:36;18.80;99.90
20957;DHT22;10637;47.970;7.830;2023-09-19T01:42:03;18.90;99.90
20957;DHT22;10637;47.970;7.830;2023-09-19T01:47:23;18.90;99.90
20957;DHT22;10637;47.970;7.830;2023-09-19T01:52:30;18.80;99.90
20957;DHT22;10637;47.970;7.830;2023-09-19T01:57:41;18.70;99.90
20957;DHT22;10637;47.970;7.830;2023-09-19T02:02:47;18.80;99.90
20957;DHT22;10637;47.970;7.830;2023-09-19T02:07:52;18.90;99.90
20957;DHT22;10637;47.970;7.830;2023-09-19T02:12:54;18.90;99.90
20957;DHT22;10637;47.970;7.830;2023-09-19T02:17:56;18.70;99.90
20957;DHT22;10637;47.970;7.830;2023-09-19T02:22:58;18.60;99.90
20957;DHT22;10637;47.970;7.830;2023-09-19T02:28:00;18.50;99.90
20957;DHT22;10637;47.970;7.830;2023-09-19T02:33:04;18.40;99.90
20957;DHT22;10637;47.970;7.830;2023-09-19T02:38:07;18.50;99.90
20957;DHT22;10637;47.970;7.830;2023-09-19T02:43:09;18.70;99.90
20957;DHT22;10637;47.970;7.830;2023-09-19T02:48:11;18.80;99.90
20957;DHT22;10637;47.970;7.830;2023-09-19T02:53:13;18.60;99.90
20957;DHT22;10637;47.970;7.830;2023-09-19T02:58:15;18.40;99.90
20957;DHT22;10637;47.970;7.830;2023-09-19T03:03:17;18.20;99.90
20957;DHT22;10637;47.970;7.830;2023-09-19T03:08:19;18.20;99.90
20957;DHT22;10637;47.970;7.830;2023-09-19T03:13:21;18.30;99.90
20957;DHT22;10637;47.970;7.830;2023-09-19T03:18:23;18.30;99.90
20957;DHT22;10637;47.970;7.830;2023-09-19T03:23:26;18.40;99.90
20957;DHT22;10637;47.970;7.830;2023-09-19T03:28:28;18.20;99.90
20957;DHT22;10637;47.970;7.830;2023-09-19T03:33:31;18.30;99.90
20957;DHT22;10637;47.970;7.830;2023-09-19T03:38:34;18.40;99.90
20957;DHT22;10637;47.970;7.830;2023-09-19T03:43:36;18.20;99.90
20957;DHT22;10637;47.970;7.830;2023-09-19T03:48:38;18.10;99.90
20957;DHT22;10637;47.970;7.830;2023-09-19T03:53:40;18.10;99.90
20957;DHT22;10637;47.970;7.830;2023-09-19T03:58:42;18.10;99.90
20957;DHT22;10637;47.970;7.830;2023-09-19T04:03:44;17.90;99.90
20957;DHT22;10637;47.970;7.830;2023-09-19T04:08:49;17.80;99.90
20957;DHT22;10637;47.970;7.830;2023-09-19T04:13:51;17.90;99.90
20957;DHT22;10637;47.970;7.830;2023-09-19T04:18:53;18.10;99.90
20957;DHT22;10637;47.970;7.830;2023-09-19T04:23:55;18.00;99.90
20957;DHT22;10637;47.970;7.830;2023-09-19T04:28:56;17.90;99.90
20957;DHT22;10637;47.970;7.830;2023-09-19T04:33:58;18.10;99.90
20957;DHT22;10637;47.970;7.830;2023-09-19T04:39:06;18.00;99.90
20957;DHT22;10637;47.970;7.830;2023-09-19T04:44:09;18.20;99.90
20957;DHT22;10637;47.970;7.830;2023-09-19T04:49:11;18.50;99.90
20957;DHT22;10637;47.970;7.830;2023-09-19T04:54:12;18.50;99.90
20957;DHT22;10637;47.970;7.830;2023-09-19T04:59:14;18.40;99.90
20957;DHT22;10637;47.970;7.830;2023-09-19T05:04:17;18.30;99.90
20957;DHT22;10637;47.970;7.830;2023-09-19T05:09:19;18.40;99.90
20957;DHT22;10637;47.970;7.830;2023-09-19T05:14:21;18.30;99.90
20957;DHT22;10637;47.970;7.830;2023-09-19T05:19:24;18.40;99.90
20957;DHT22;10637;47.970;7.830;2023-09-19T05:24:25;18.30;99.90
20957;DHT22;10637;47.970;7.830;2023-09-19T05:29:28;18.30;99.90
20957;DHT22;10637;47.970;7.830;2023-09-19T05:34:30;18.20;99.90
20957;DHT22;10637;47.970;7.830;2023-09-19T05:39:32;18.40;99.90
20957;DHT22;10637;47.970;7.830;2023-09-19T05:44:34;18.30;99.90
20957;DHT22;10637;47.970;7.830;2023-09-19T05:49:37;18.60;99.90
20957;DHT22;10637;47.970;7.830;2023-09-19T05:54:42;18.70;99.90
20957;DHT22;10637;47.970;7.830;2023-09-19T05:59:44;18.50;99.90
20957;DHT22;10637;47.970;7.830;2023-09-19T06:04:46;18.50;99.90
20957;DHT22;10637;47.970;7.830;2023-09-19T06:09:48;18.30;99.90
20957;DHT22;10637;47.970;7.830;2023-09-19T06:14:49;18.30;99.90
20957;DHT22;10637;47.970;7.830;2023-09-19T06:19:51;18.50;99.90
20957;DHT22;10637;47.970;7.830;2023-09-19T06:24:53;18.40;99.90
20957;DHT22;10637;47.970;7.830;2023-09-19T06:29:55;18.30;99.90
20957;DHT22;10637;47.970;7.830;2023-09-19T06:34:56;18.40;99.90
20957;DHT22;10637;47.970;7.830;2023-09-19T06:40:00;18.30;99.90
20957;DHT22;10637;47.970;7.830;2023-09-19T06:45:04;18.60;99.90
20957;DHT22;10637;47.970;7.830;2023-09-19T06:50:07;18.60;99.90
20957;DHT22;10637;47.970;7.830;2023-09-19T06:55:14;18.70;99.90
20957;DHT22;10637;47.970;7.830;2023-09-19T07:00:17;18.60;99.90
20957;DHT22;10637;47.970;7.830;2023-09-19T07:05:29;18.70;99.90
20957;DHT22;10637;47.970;7.830;2023-09-19T07:10:32;18.70;99.90
20957;DHT22;10637;47.970;7.830;2023-09-19T07:15:38;19.10;99.90
20957;DHT22;10637;47.970;7.830;2023-09-19T07:20:44;19.20;99.90
20957;DHT22;10637;47.970;7.830;2023-09-19T07:25:50;19.30;99.90
20957;DHT22;10637;47.970;7.830;2023-09-19T07:30:52;19.60;99.90
20957;DHT22;10637;47.970;7.830;2023-09-19T07:35:54;19.40;99.90
20957;DHT22;10637;47.970;7.830;2023-09-19T07:41:02;19.60;99.90
20957;DHT22;10637;47.970;7.830;2023-09-19T07:46:05;19.60;99.90
20957;DHT22;10637;47.970;7.830;2023-09-19T07:51:08;19.70;99.90
20957;DHT22;10637;47.970;7.830;2023-09-19T07:56:10;19.80;99.90
20957;DHT22;10637;47.970;7.830;2023-09-19T08:01:12;19.70;99.90
20957;DHT22;10637;47.970;7.830;2023-09-19T08:06:15;19.60;99.90
20957;DHT22;10637;47.970;7.830;2023-09-19T08:11:20;19.60;99.90
20957;DHT22;10637;47.970;7.830;2023-09-19T08:16:23;19.70;99.90
20957;DHT22;10637;47.970;7.830;2023-09-19T08:21:26;19.70;99.90
20957;DHT22;10637;47.970;7.830;2023-09-19T08:26:31;19.50;99.90
20957;DHT22;10637;47.970;7.830;2023-09-19T08:31:34;19.70;99.90
20957;DHT22;10637;47.970;7.830;2023-09-19T08:36:35;19.90;99.90
20957;DHT22;10637;47.970;7.830;2023-09-19T08:41:39;20.10;99.90
20957;DHT22;10637;47.970;7.830;2023-09-19T08:46:42;19.90;99.90
20957;DHT22;10637;47.970;7.830;2023-09-19T08:51:46;19.80;99.90
20957;DHT22;10637;47.970;7.830;2023-09-19T08:56:50;20.10;99.90
20957;DHT22;10637;47.970;7.830;2023-09-19T09:01:55;20.20;99.90
20957;DHT22;10637;47.970;7.830;2023-09-19T09:06:57;20.60;99.90
20957;DHT22;10637;47.970;7.830;2023-09-19T09:12:00;21.00;99.90
20957;DHT22;10637;47.970;7.830;2023-09-19T09:17:04;21.20;99.90
20957;DHT22;10637;47.970;7.830;2023-09-19T09:22:10;21.10;99.90
20957;DHT22;10637;47.970;7.830;2023-09-19T09:27:12;21.10;99.90
20957;DHT22;10637;47.970;7.830;2023-09-19T09:32:27;20.90;99.90
20957;DHT22;10637;47.970;7.830;2023-09-19T09:37:30;20.90;99.90
20957;DHT22;10637;47.970;7.830;2023-09-19T09:42:34;20.60;99.90
20957;DHT22;10637;47.970;7.830;2023-09-19T09:47:44;20.70;99.90
20957;DHT22;10637;47.970;7.830;2023-09-19T09:52:59;21.40;99.90
20957;DHT22;10637;47.970;7.830;2023-09-19T09:58:18;21.40;99.90
20957;DHT22;10637;47.970;7.830;2023-09-19T10:03:20;21.50;99.90
20957;DHT22;10637;47.970;7.830;2023-09-19T10:08:25;22.50;99.90
20957;DHT22;10637;47.970;7.830;2023-09-19T10:13:34;22.80;99.90
20957;DHT22;10637;47.970;7.830;2023-09-19T10:18:38;22.50;99.90
20957;DHT22;10637;47.970;7.830;2023-09-19T10:23:42;22.90;99.90
20957;DHT22;10637;47.970;7.830;2023-09-19T10:28:47;23.20;99.90
20957;DHT22;10637;47.970;7.830;2023-09-19T10:33:52;23.80;99.90
20957;DHT22;10637;47.970;7.830;2023-09-19T10:38:56;23.30;99.90
20957;DHT22;10637;47.970;7.830;2023-09-19T10:44:02;23.10;99.90
20957;DHT22;10637;47.970;7.830;2023-09-19T10:49:04;23.10;99.90
20957;DHT22;10637;47.970;7.830;2023-09-19T10:54:16;23.60;99.90
20957;DHT22;10637;47.970;7.830;2023-09-19T10:59:21;24.10;99.90
20957;DHT22;10637;47.970;7.830;2023-09-19T11:04:31;23.80;99.90
20957;DHT22;10637;47.970;7.830;2023-09-19T11:14:49;25.10;99.90
20957;DHT22;10637;47.970;7.830;2023-09-19T11:36:35;25.90;99.90
20957;DHT22;10637;47.970;7.830;2023-09-19T11:41:39;26.40;99.90
20957;DHT22;10637;47.970;7.830;2023-09-19T11:47:07;25.80;99.90
20957;DHT22;10637;47.970;7.830;2023-09-19T11:52:12;25.00;99.90
20957;DHT22;10637;47.970;7.830;2023-09-19T11:57:24;24.90;99.90
20957;DHT22;10637;47.970;7.830;2023-09-19T12:02:39;25.00;99.90
20957;DHT22;10637;47.970;7.830;2023-09-19T12:07:44;24.90;99.90
20957;DHT22;10637;47.970;7.830;2023-09-19T12:12:50;25.40;99.90
20957;DHT22;10637;47.970;7.830;2023-09-19T12:17:54;25.20;99.90
20957;DHT22;10637;47.970;7.830;2023-09-19T12:22:56;25.50;99.90
20957;DHT22;10637;47.970;7.830;2023-09-19T12:27:58;25.70;99.90
20957;DHT22;10637;47.970;7.830;2023-09-19T12:33:00;25.40;99.90
20957;DHT22;10637;47.970;7.830;2023-09-19T12:38:05;26.00;99.90
20957;DHT22;10637;47.970;7.830;2023-09-19T12:43:08;25.40;99.90
20957;DHT22;10637;47.970;7.830;2023-09-19T12:48:24;25.70;99.90
20957;DHT22;10637;47.970;7.830;2023-09-19T12:53:57;25.60;99.90
20957;DHT22;10637;47.970;7.830;2023-09-19T12:58:59;25.50;99.90
20957;DHT22;10637;47.970;7.830;2023-09-19T13:09:21;25.60;99.90
20957;DHT22;10637;47.970;7.830;2023-09-19T13:14:24;24.90;99.90
20957;DHT22;10637;47.970;7.830;2023-09-19T13:19:35;25.20;99.90
20957;DHT22;10637;47.970;7.830;2023-09-19T13:24:37;25.20;99.90
20957;DHT22;10637;47.970;7.830;2023-09-19T13:29:41;24.80;99.90
20957;DHT22;10637;47.970;7.830;2023-09-19T13:34:43;25.60;99.90
20957;DHT22;10637;47.970;7.830;2023-09-19T13:39:45;25.40;99.90
20957;DHT22;10637;47.970;7.830;2023-09-19T13:44:49;25.20;99.90
20957;DHT22;10637;47.970;7.830;2023-09-19T13:49:50;25.30;99.90
20957;DHT22;10637;47.970;7.830;2023-09-19T13:54:54;25.70;99.90
20957;DHT22;10637;47.970;7.830;2023-09-19T13:59:58;26.50;99.90
20957;DHT22;10637;47.970;7.830;2023-09-19T14:04:59;26.20;99.90
20957;DHT22;10637;47.970;7.830;2023-09-19T14:10:01;26.40;99.90
20957;DHT22;10637;47.970;7.830;2023-09-19T14:15:08;27.70;99.90
20957;DHT22;10637;47.970;7.830;2023-09-19T14:20:10;26.80;99.90
20957;DHT22;10637;47.970;7.830;2023-09-19T14:25:12;27.20;99.90
20957;DHT22;10637;47.970;7.830;2023-09-19T14:30:14;26.90;99.90
20957;DHT22;10637;47.970;7.830;2023-09-19T14:35:16;26.40;99.90
20957;DHT22;10637;47.970;7.830;2023-09-19T14:40:19;26.60;99.90
20957;DHT22;10637;47.970;7.830;2023-09-19T14:45:21;26.00;99.90
20957;DHT22;10637;47.970;7.830;2023-09-19T14:50:23;26.10;99.90
20957;DHT22;10637;47.970;7.830;2023-09-19T14:55:25;26.00;99.90
20957;DHT22;10637;47.970;7.830;2023-09-19T15:00:29;25.80;99.90
20957;DHT22;10637;47.970;7.830;2023-09-19T15:05:30;25.70;99.90
20957;DHT22;10637;47.970;7.830;2023-09-19T15:10:32;26.00;99.90
20957;DHT22;10637;47.970;7.830;2023-09-19T15:15:34;26.00;99.90
20957;DHT22;10637;47.970;7.830;2023-09-19T15:20:36;25.50;99.90
20957;DHT22;10637;47.970;7.830;2023-09-19T15:25:50;25.50;99.90
20957;DHT22;10637;47.970;7.830;2023-09-19T15:31:06;26.00;99.90
20957;DHT22;10637;47.970;7.830;2023-09-19T15:36:09;26.20;99.80
20957;DHT22;10637;47.970;7.830;2023-09-19T15:41:14;24.90;99.90
20957;DHT22;10637;47.970;7.830;2023-09-19T15:46:16;25.40;99.90
20957;DHT22;10637;47.970;7.830;2023-09-19T15:51:18;25.30;99.90
20957;DHT22;10637;47.970;7.830;2023-09-19T15:56:21;25.40;99.90
20957;DHT22;10637;47.970;7.830;2023-09-19T16:01:25;25.60;99.90
20957;DHT22;10637;47.970;7.830;2023-09-19T16:06:28;25.20;99.90
20957;DHT22;10637;47.970;7.830;2023-09-19T16:11:33;25.20;99.90
20957;DHT22;10637;47.970;7.830;2023-09-19T16:16:35;24.80;99.90
20957;DHT22;10637;47.970;7.830;2023-09-19T16:21:38;24.60;99.90
20957;DHT22;10637;47.970;7.830;2023-09-19T16:26:42;24.50;99.90
20957;DHT22;10637;47.970;7.830;2023-09-19T16:31:44;25.00;99.90
20957;DHT22;10637;47.970;7.830;2023-09-19T16:36:46;24.60;99.90
20957;DHT22;10637;47.970;7.830;2023-09-19T16:41:48;24.50;99.90
20957;DHT22;10637;47.970;7.830;2023-09-19T16:46:49;24.20;99.90
20957;DHT22;10637;47.970;7.830;2023-09-19T16:51:51;23.90;99.90
20957;DHT22;10637;47.970;7.830;2023-09-19T16:56:53;24.10;99.90
20957;DHT22;10637;47.970;7.830;2023-09-19T17:01:55;24.20;99.90
20957;DHT22;10637;47.970;7.830;2023-09-19T17:06:59;24.30;99.90
20957;DHT22;10637;47.970;7.830;2023-09-19T17:12:01;24.40;99.90
20957;DHT22;10637;47.970;7.830;2023-09-19T17:17:04;24.10;99.90
20957;DHT22;10637;47.970;7.830;2023-09-19T17:22:06;23.70;99.90
20957;DHT22;10637;47.970;7.830;2023-09-19T17:27:08;23.50;99.90
20957;DHT22;10637;47.970;7.830;2023-09-19T17:32:09;23.20;99.90
20957;DHT22;10637;47.970;7.830;2023-09-19T17:37:11;22.60;99.90
20957;DHT22;10637;47.970;7.830;2023-09-19T17:42:13;22.10;99.90
20957;DHT22;10637;47.970;7.830;2023-09-19T17:47:18;22.20;99.90
20957;DHT22;10637;47.970;7.830;2023-09-19T17:52:20;22.30;99.90
20957;DHT22;10637;47.970;7.830;2023-09-19T17:57:22;22.20;99.90
20957;DHT22;10637;47.970;7.830;2023-09-19T18:02:24;22.00;99.90
20957;DHT22;10637;47.970;7.830;2023-09-19T18:07:26;21.70;99.90
20957;DHT22;10637;47.970;7.830;2023-09-19T18:12:28;21.10;99.90
20957;DHT22;10637;47.970;7.830;2023-09-19T18:17:30;20.90;99.90
20957;DHT22;10637;47.970;7.830;2023-09-19T18:22:32;20.60;99.90
20957;DHT22;10637;47.970;7.830;2023-09-19T18:27:35;20.60;99.90
20957;DHT22;10637;47.970;7.830;2023-09-19T18:32:39;20.50;99.90
20957;DHT22;10637;47.970;7.830;2023-09-19T18:37:42;20.00;99.90
20957;DHT22;10637;47.970;7.830;2023-09-19T18:42:44;20.00;99.90
20957;DHT22;10637;47.970;7.830;2023-09-19T18:47:46;20.00;99.90
20957;DHT22;10637;47.970;7.830;2023-09-19T18:52:49;19.90;99.90
20957;DHT22;10637;47.970;7.830;2023-09-19T18:57:52;19.70;99.90
20957;DHT22;10637;47.970;7.830;2023-09-19T19:02:54;19.20;99.90
20957;DHT22;10637;47.970;7.830;2023-09-19T19:07:56;19.00;99.90
20957;DHT22;10637;47.970;7.830;2023-09-19T19:12:59;18.90;99.90
20957;DHT22;10637;47.970;7.830;2023-09-19T19:18:02;19.00;99.90
20957;DHT22;10637;47.970;7.830;2023-09-19T19:23:04;19.10;99.90
20957;DHT22;10637;47.970;7.830;2023-09-19T19:28:06;19.00;99.90
20957;DHT22;10637;47.970;7.830;2023-09-19T19:33:09;19.10;99.90
20957;DHT22;10637;47.970;7.830;2023-09-19T19:38:12;18.90;99.90
20957;DHT22;10637;47.970;7.830;2023-09-19T19:43:14;18.90;99.90
20957;DHT22;10637;47.970;7.830;2023-09-19T19:48:16;18.90;99.90
20957;DHT22;10637;47.970;7.830;2023-09-19T19:53:18;18.60;99.90
20957;DHT22;10637;47.970;7.830;2023-09-19T19:58:20;18.10;99.90
20957;DHT22;10637;47.970;7.830;2023-09-19T20:03:24;18.20;99.90
20957;DHT22;10637;47.970;7.830;2023-09-19T20:08:27;18.10;99.90
20957;DHT22;10637;47.970;7.830;2023-09-19T20:13:30;18.00;99.90
20957;DHT22;10637;47.970;7.830;2023-09-19T20:18:33;17.90;99.90
20957;DHT22;10637;47.970;7.830;2023-09-19T20:23:37;18.20;99.90
20957;DHT22;10637;47.970;7.830;2023-09-19T20:28:39;18.50;99.90
20957;DHT22;10637;47.970;7.830;2023-09-19T20:33:42;18.60;99.90
20957;DHT22;10637;47.970;7.830;2023-09-19T20:38:44;18.50;99.90
20957;DHT22;10637;47.970;7.830;2023-09-19T20:43:46;18.70;99.90
20957;DHT22;10637;47.970;7.830;2023-09-19T20:48:48;18.80;99.90
20957;DHT22;10637;47.970;7.830;2023-09-19T20:53:53;18.60;99.90
20957;DHT22;10637;47.970;7.830;2023-09-19T20:58:55;18.20;99.90
20957;DHT22;10637;47.970;7.830;2023-09-19T21:03:57;18.10;99.90
20957;DHT22;10637;47.970;7.830;2023-09-19T21:08:59;18.10;99.90
20957;DHT22;10637;47.970;7.830;2023-09-19T21:14:02;18.20;99.90
20957;DHT22;10637;47.970;7.830;2023-09-19T21:19:05;18.50;99.90
20957;DHT22;10637;47.970;7.830;2023-09-19T21:24:09;18.30;99.90
20957;DHT22;10637;47.970;7.830;2023-09-19T21:29:13;18.30;99.90
20957;DHT22;10637;47.970;7.830;2023-09-19T21:34:15;18.30;99.90
20957;DHT22;10637;47.970;7.830;2023-09-19T21:39:17;17.60;99.90
20957;DHT22;10637;47.970;7.830;2023-09-19T21:44:18;17.80;99.90
20957;DHT22;10637;47.970;7.830;2023-09-19T21:49:20;17.80;99.90
20957;DHT22;10637;47.970;7.830;2023-09-19T21:54:22;17.90;99.90
20957;DHT22;10637;47.970;7.830;2023-09-19T21:59:25;17.90;99.90
20957;DHT22;10637;47.970;7.830;2023-09-19T22:04:26;17.60;99.90
20957;DHT22;10637;47.970;7.830;2023-09-19T22:09:28;17.50;99.90
20957;DHT22;10637;47.970;7.830;2023-09-19T22:14:31;17.60;99.90
20957;DHT22;10637;47.970;7.830;2023-09-19T22:19:33;17.70;99.90
20957;DHT22;10637;47.970;7.830;2023-09-19T22:24:40;17.80;99.90
20957;DHT22;10637;47.970;7.830;2023-09-19T22:29:42;17.80;99.90
20957;DHT22;10637;47.970;7.830;2023-09-19T22:34:45;17.60;99.90
20957;DHT22;10637;47.970;7.830;2023-09-19T22:39:48;17.60;99.90
20957;DHT22;10637;47.970;7.830;2023-09-19T22:44:49;17.40;99.90
20957;DHT22;10637;47.970;7.830;2023-09-19T22:49:54;17.40;99.90
20957;DHT22;10637;47.970;7.830;2023-09-19T22:54:56;17.60;99.90
20957;DHT22;10637;47.970;7.830;2023-09-19T23:00:00;17.40;99.90
20957;DHT22;10637;47.970;7.830;2023-09-19T23:05:02;17.10;99.90
20957;DHT22;10637;47.970;7.830;2023-09-19T23:10:09;17.40;99.90
20957;DHT22;10637;47.970;7.830;2023-09-19T23:15:12;17.60;99.90
20957;DHT22;10637;47.970;7.830;2023-09-19T23:20:19;18.00;99.90
20957;DHT22;10637;47.970;7.830;2023-09-19T23:25:21;17.50;99.90
20957;DHT22;10637;47.970;7.830;2023-09-19T23:30:29;17.30;99.90
20957;DHT22;10637;47.970;7.830;2023-09-19T23:35:34;17.50;99.90
20957;DHT22;10637;47.970;7.830;2023-09-19T23:40:35;17.40;99.90
20957;DHT22;10637;47.970;7.830;2023-09-19T23:45:40;17.80;99.90
20957;DHT22;10637;47.970;7.830;2023-09-19T23:50:47;17.60;99.90
20957;DHT22;10637;47.970;7.830;2023-09-19T23:55:48;17.50;99.90
